Time;durP1;ratioP1;P1;durP2;ratioP2;P2;SDS_P1;SDS_P2;PMS_P1;PMS_P2;Temp;Humidity;BMP_temperature;BMP_pressure;BME280_temperature;BME280_humidity;BME280_pressure;Samples;Min_cycle;Max_cycle;Signal;HPM_P1;HPM_P2
2020/12/21 00:00:06;;;;;;;105.35;18.85;;;;;;;0.47;100.00;97224.75;5033725;28;20098;-48
2020/12/21 00:02:39;;;;;;;82.38;18.63;;;;;;;0.55;100.00;97220.09;5008225;28;20959;-49
2020/12/21 00:05:07;;;;;;;71.05;17.48;;;;;;;0.54;100.00;97217.56;5002355;28;20271;-47
2020/12/21 00:07:35;;;;;;;109.25;18.95;;;;;;;0.69;100.00;97215.16;5026915;28;20041;-48
2020/12/21 00:10:03;;;;;;;132.40;19.95;;;;;;;0.50;100.00;97216.84;4983774;28;20051;-50
2020/12/21 00:12:32;;;;;;;95.68;18.23;;;;;;;0.55;100.00;97207.13;5024912;28;20132;-53
2020/12/21 00:14:59;;;;;;;61.10;17.40;;;;;;;0.70;100.00;97201.28;4994156;28;20064;-48
2020/12/21 00:17:26;;;;;;;77.60;18.83;;;;;;;0.71;100.00;97202.94;5027121;28;20511;-50
2020/12/21 00:19:53;;;;;;;105.38;21.05;;;;;;;0.62;100.00;97200.78;4977431;28;20807;-48
2020/12/21 00:22:20;;;;;;;80.15;17.83;;;;;;;0.41;100.00;97202.53;5016983;28;20041;-51
2020/12/21 00:24:48;;;;;;;88.43;18.48;;;;;;;0.34;100.00;97195.88;4989817;28;20049;-50
2020/12/21 00:27:14;;;;;;;90.97;19.15;;;;;;;0.35;100.00;97207.97;5023705;28;20060;-48
2020/12/21 00:29:41;;;;;;;60.10;18.30;;;;;;;0.37;100.00;97203.53;4985038;28;20049;-52
2020/12/21 00:32:08;;;;;;;74.57;20.60;;;;;;;0.31;100.00;97208.13;5028497;28;20404;-50
2020/12/21 00:34:35;;;;;;;62.95;19.70;;;;;;;0.33;100.00;97207.16;5024242;28;20434;-49
2020/12/21 00:37:03;;;;;;;56.45;18.42;;;;;;;0.33;100.00;97203.72;5018648;28;20524;-47
2020/12/21 00:39:30;;;;;;;61.70;19.27;;;;;;;0.30;100.00;97199.50;4996274;28;20629;-49
2020/12/21 00:41:58;;;;;;;56.22;19.30;;;;;;;0.23;100.00;97204.09;5024649;28;20045;-47
2020/12/21 00:44:25;;;;;;;52.40;18.55;;;;;;;0.16;100.00;97194.06;4978306;28;20045;-49
2020/12/21 00:46:52;;;;;;;44.50;17.00;;;;;;;0.12;100.00;97197.69;5024575;28;20467;-51
2020/12/21 00:49:19;;;;;;;44.53;17.15;;;;;;;0.14;100.00;97204.50;5028588;28;20050;-49
2020/12/21 00:51:46;;;;;;;44.47;16.95;;;;;;;0.25;100.00;97206.66;4987309;28;20120;-53
2020/12/21 00:54:14;;;;;;;39.53;16.85;;;;;;;0.26;100.00;97199.72;5024018;28;20046;-50
2020/12/21 00:56:41;;;;;;;37.53;16.40;;;;;;;0.37;100.00;97200.09;4997932;28;20072;-47
2020/12/21 00:59:09;;;;;;;40.22;17.02;;;;;;;0.41;100.00;97205.13;5024135;28;20098;-52
2020/12/21 01:01:36;;;;;;;39.20;16.30;;;;;;;0.60;100.00;97214.72;4983175;28;24444;-50
2020/12/21 01:04:05;;;;;;;41.50;17.40;;;;;;;0.64;100.00;97214.50;5027765;28;20109;-48
2020/12/21 01:06:33;;;;;;;39.75;16.60;;;;;;;0.73;100.00;97226.25;4979020;28;20656;-46
2020/12/21 01:09:00;;;;;;;41.47;16.48;;;;;;;0.75;100.00;97234.81;5026782;28;20124;-49
2020/12/21 01:11:29;;;;;;;36.85;16.45;;;;;;;0.76;100.00;97231.34;4995252;28;20046;-46
2020/12/21 01:13:57;;;;;;;31.50;15.30;;;;;;;0.75;100.00;97227.03;5011366;28;20081;-50
2020/12/21 01:16:25;;;;;;;38.10;17.17;;;;;;;0.86;100.00;97227.44;4984671;28;20119;-47
2020/12/21 01:18:52;;;;;;;36.72;16.00;;;;;;;0.95;100.00;97229.59;5024507;28;20060;-46
2020/12/21 01:21:23;;;;;;;35.60;16.02;;;;;;;1.00;100.00;97228.56;4995545;28;20129;-46
2020/12/21 01:23:50;;;;;;;33.25;15.85;;;;;;;0.95;100.00;97223.56;5024097;28;20047;-49
2020/12/21 01:26:17;;;;;;;32.05;15.43;;;;;;;0.81;100.00;97228.53;4995728;28;20048;-47
2020/12/21 01:28:44;;;;;;;36.90;16.13;;;;;;;0.68;100.00;97225.59;5014603;28;20563;-52
2020/12/21 01:31:11;;;;;;;31.83;15.15;;;;;;;0.80;100.00;97243.28;4982457;28;20085;-50
2020/12/21 01:33:39;;;;;;;35.85;15.32;;;;;;;0.71;100.00;97231.50;5008135;28;20527;-47
2020/12/21 01:36:06;;;;;;;36.25;16.00;;;;;;;0.77;100.00;97251.19;5052092;28;20041;-50
2020/12/21 01:38:33;;;;;;;41.92;17.33;;;;;;;0.74;100.00;97240.94;4982170;28;20050;-47
2020/12/21 01:41:00;;;;;;;35.63;15.68;;;;;;;0.75;100.00;97247.78;5010724;28;20124;-48
2020/12/21 01:43:28;;;;;;;31.80;14.93;;;;;;;0.71;100.00;97235.84;4974629;28;20044;-48
2020/12/21 01:45:55;;;;;;;33.80;15.73;;;;;;;0.68;100.00;97230.78;5025927;28;20044;-50
2020/12/21 01:48:22;;;;;;;34.53;16.75;;;;;;;0.70;100.00;97244.56;4991985;28;20049;-48
2020/12/21 01:50:51;;;;;;;30.00;14.35;;;;;;;0.66;100.00;97236.06;5028892;28;20038;-51
2020/12/21 01:53:18;;;;;;;27.95;13.93;;;;;;;0.66;100.00;97240.41;4981906;28;20054;-46
2020/12/21 01:55:45;;;;;;;31.75;15.60;;;;;;;0.83;100.00;97244.91;5022684;28;20037;-48
2020/12/21 01:58:13;;;;;;;30.45;14.88;;;;;;;0.85;100.00;97243.06;4970652;28;20139;-47
2020/12/21 02:00:41;;;;;;;27.48;13.80;;;;;;;0.88;100.00;97238.56;5010687;28;20038;-49
2020/12/21 02:03:08;;;;;;;31.33;14.50;;;;;;;0.86;100.00;97247.34;4974494;28;20568;-46
2020/12/21 02:05:37;;;;;;;25.63;12.90;;;;;;;0.83;100.00;97248.34;5030628;28;20049;-46
2020/12/21 02:08:06;;;;;;;24.67;13.25;;;;;;;0.82;100.00;97240.59;4996567;28;20107;-49
2020/12/21 02:10:33;;;;;;;27.27;14.18;;;;;;;0.85;100.00;97235.28;5019291;28;20037;-49
2020/12/21 02:13:00;;;;;;;25.50;12.85;;;;;;;0.80;100.00;97232.03;4982973;28;20044;-47
2020/12/21 02:15:28;;;;;;;26.98;13.23;;;;;;;0.77;100.00;97237.38;5017289;28;20049;-49
2020/12/21 02:17:55;;;;;;;24.63;12.98;;;;;;;0.80;100.00;97239.84;5018188;28;20491;-49
2020/12/21 02:20:30;;;;;;;26.20;13.18;;;;;;;0.87;100.00;97252.47;5018447;28;20045;-47
2020/12/21 02:22:57;;;;;;;28.70;14.13;;;;;;;0.85;100.00;97256.03;5024443;28;20053;-49
2020/12/21 02:25:25;;;;;;;28.58;13.27;;;;;;;0.92;100.00;97255.69;4984993;28;20052;-51
2020/12/21 02:27:52;;;;;;;23.02;12.68;;;;;;;0.94;100.00;97258.25;5013678;28;20069;-51
2020/12/21 02:30:19;;;;;;;25.95;12.45;;;;;;;1.00;100.00;97250.22;4994208;28;20042;-48
2020/12/21 02:32:46;;;;;;;23.38;11.90;;;;;;;0.91;100.00;97240.22;5012999;28;20120;-50
2020/12/21 02:35:14;;;;;;;21.73;11.73;;;;;;;0.84;100.00;97238.78;4969681;28;20038;-48
2020/12/21 02:37:42;;;;;;;21.17;11.10;;;;;;;0.87;100.00;97233.47;5003623;28;20512;-50
2020/12/21 02:40:09;;;;;;;24.45;12.60;;;;;;;0.76;100.00;97227.88;4986484;28;20045;-51
2020/12/21 02:42:37;;;;;;;23.30;13.10;;;;;;;0.81;100.00;97231.97;5024579;28;20049;-54
2020/12/21 02:45:05;;;;;;;21.92;11.35;;;;;;;0.69;100.00;97224.72;4977547;28;20053;-47
2020/12/21 02:47:31;;;;;;;24.13;11.30;;;;;;;0.77;100.00;97221.78;5028915;28;20045;-49
2020/12/21 02:49:58;;;;;;;21.42;11.77;;;;;;;0.68;100.00;97216.06;4990458;28;20045;-47
2020/12/21 02:52:25;;;;;;;23.77;13.52;;;;;;;0.69;100.00;97214.34;5025218;28;20452;-49
2020/12/21 02:54:53;;;;;;;23.48;12.88;;;;;;;0.78;100.00;97221.72;4990965;28;20504;-48
2020/12/21 02:57:22;;;;;;;25.85;13.73;;;;;;;0.91;100.00;97222.03;5030062;28;20045;-48
2020/12/21 02:59:49;;;;;;;24.60;13.77;;;;;;;0.90;100.00;97222.94;4995013;28;20411;-48
2020/12/21 03:02:15;;;;;;;24.50;11.93;;;;;;;0.99;100.00;97221.69;5009276;28;20050;-46
2020/12/21 03:04:43;;;;;;;22.67;12.18;;;;;;;1.04;100.00;97210.19;5021665;28;20037;-48
2020/12/21 03:07:09;;;;;;;24.15;12.55;;;;;;;1.16;100.00;97219.19;5014684;28;20095;-50
2020/12/21 03:09:36;;;;;;;24.85;13.05;;;;;;;1.13;100.00;97221.91;5027013;28;20132;-51
2020/12/21 03:12:05;;;;;;;28.02;13.60;;;;;;;1.19;100.00;97217.31;4989813;28;20037;-49
2020/12/21 03:14:32;;;;;;;23.85;12.52;;;;;;;1.14;100.00;97216.69;5008563;28;20701;-51
2020/12/21 03:16:59;;;;;;;23.67;12.45;;;;;;;1.25;100.00;97220.56;4981828;28;20056;-47
2020/12/21 03:19:26;;;;;;;21.80;11.85;;;;;;;1.21;100.00;97221.59;5027110;28;20042;-47
2020/12/21 03:21:53;;;;;;;23.88;12.75;;;;;;;1.22;100.00;97224.13;4997796;28;20105;-51
2020/12/21 03:24:20;;;;;;;21.92;12.15;;;;;;;1.30;100.00;97218.56;5026164;28;20053;-47
2020/12/21 03:26:47;;;;;;;23.48;12.18;;;;;;;1.37;100.00;97223.41;4987723;28;20450;-51
2020/12/21 03:29:17;;;;;;;21.63;11.90;;;;;;;1.61;100.00;97223.22;5011538;28;20045;-47
2020/12/21 03:31:44;;;;;;;23.58;12.15;;;;;;;1.74;100.00;97229.53;4964344;28;20045;-48
2020/12/21 03:34:13;;;;;;;21.55;11.90;;;;;;;1.65;100.00;97222.16;5017051;28;20042;-50
2020/12/21 03:36:42;;;;;;;22.55;12.38;;;;;;;1.52;100.00;97226.25;4987932;28;20110;-46
2020/12/21 03:39:08;;;;;;;23.00;12.32;;;;;;;1.38;100.00;97227.72;5026562;28;20046;-46
2020/12/21 03:41:36;;;;;;;24.42;12.80;;;;;;;1.23;100.00;97225.81;4995261;28;20037;-49
2020/12/21 03:44:03;;;;;;;21.95;12.25;;;;;;;1.16;100.00;97224.38;5032663;28;20515;-48
2020/12/21 03:46:31;;;;;;;24.77;12.32;;;;;;;1.05;100.00;97224.88;4986300;28;20046;-51
2020/12/21 03:51:52;;;;;;;23.05;12.77;;;;;;;1.19;100.00;97212.09;4995314;28;23617;-49
2020/12/21 03:54:21;;;;;;;23.50;12.10;;;;;;;1.05;100.00;97209.28;5024967;28;20543;-49
2020/12/21 03:56:49;;;;;;;19.95;11.60;;;;;;;1.13;100.00;97214.97;4984799;28;20103;-50
2020/12/21 03:59:16;;;;;;;25.05;13.50;;;;;;;1.18;100.00;97215.63;5016871;28;20140;-46
2020/12/21 04:01:44;;;;;;;22.02;11.52;;;;;;;1.26;100.00;97211.84;5013076;28;20038;-47
2020/12/21 04:04:10;;;;;;;24.00;13.95;;;;;;;1.28;100.00;97213.47;4981400;28;20049;-50
2020/12/21 04:06:37;;;;;;;27.27;12.98;;;;;;;1.34;100.00;97209.72;5025706;28;20037;-48
2020/12/21 04:09:04;;;;;;;25.90;13.60;;;;;;;1.30;100.00;97208.19;4995704;28;20103;-50
2020/12/21 04:11:31;;;;;;;23.23;12.80;;;;;;;1.32;100.00;97208.97;5025624;28;20071;-48
2020/12/21 04:14:07;;;;;;;23.98;12.45;;;;;;;1.36;100.00;97205.31;4996340;28;20139;-52
2020/12/21 04:16:34;;;;;;;26.15;12.70;;;;;;;1.41;100.00;97204.19;5023871;28;20099;-50
2020/12/21 04:19:03;;;;;;;24.60;12.15;;;;;;;1.37;100.00;97204.38;4989433;28;20514;-50
2020/12/21 04:21:30;;;;;;;23.95;12.20;;;;;;;1.32;100.00;97203.78;5023151;28;20132;-48
2020/12/21 04:23:57;;;;;;;24.10;13.00;;;;;;;1.35;100.00;97211.44;4989250;28;20202;-49
2020/12/21 04:26:24;;;;;;;21.10;11.57;;;;;;;1.46;100.00;97203.97;5027154;28;20046;-46
2020/12/21 04:28:51;;;;;;;24.25;13.07;;;;;;;1.33;100.00;97197.66;4975637;28;20126;-53
2020/12/21 04:31:17;;;;;;;27.55;14.25;;;;;;;1.27;100.00;97198.75;5016195;28;20067;-46
2020/12/21 04:33:45;;;;;;;28.02;13.65;;;;;;;1.25;100.00;97181.59;4993354;28;20408;-47
2020/12/21 04:36:13;;;;;;;24.17;11.45;;;;;;;1.21;100.00;97188.66;5001610;28;20050;-48
2020/12/21 04:38:42;;;;;;;24.05;12.38;;;;;;;1.14;100.00;97179.47;4988401;28;25568;-51
2020/12/21 04:41:10;;;;;;;23.13;11.52;;;;;;;1.03;100.00;97182.53;5024899;28;20465;-49
2020/12/21 04:43:37;;;;;;;27.33;14.15;;;;;;;0.97;100.00;97184.56;4999041;28;20073;-48
2020/12/21 04:46:06;;;;;;;28.95;14.00;;;;;;;0.90;100.00;97174.44;5026823;28;20053;-47
2020/12/21 04:48:38;;;;;;;26.05;13.27;;;;;;;0.89;100.00;97174.50;5026335;28;20515;-48
2020/12/21 04:51:05;;;;;;;27.13;12.57;;;;;;;0.96;100.00;97178.50;4992484;28;20038;-51
2020/12/21 04:53:34;;;;;;;26.90;12.88;;;;;;;1.09;100.00;97182.25;5004616;28;20042;-53
2020/12/21 04:56:01;;;;;;;22.73;11.85;;;;;;;1.32;100.00;97180.38;4985884;28;20041;-49
2020/12/21 04:58:29;;;;;;;23.63;12.32;;;;;;;1.47;100.00;97192.66;5026581;28;20504;-52
2020/12/21 05:00:56;;;;;;;23.33;12.02;;;;;;;1.61;100.00;97194.63;4978437;28;20520;-51
2020/12/21 05:03:23;;;;;;;21.92;11.90;;;;;;;1.71;100.00;97195.03;5022731;28;20659;-47
2020/12/21 05:05:50;;;;;;;21.63;12.57;;;;;;;1.56;100.00;97194.84;4975653;28;20052;-50
2020/12/21 05:08:20;;;;;;;22.75;11.75;;;;;;;1.56;100.00;97197.44;5004418;28;20121;-51
2020/12/21 05:10:56;;;;;;;26.00;12.57;;;;;;;1.76;100.00;97200.88;4975303;28;20041;-47
2020/12/21 05:13:24;;;;;;;23.20;11.93;;;;;;;1.90;100.00;97193.25;5007761;28;20492;-52
2020/12/21 05:15:51;;;;;;;23.35;12.43;;;;;;;1.81;100.00;97184.13;4972854;28;20570;-48
2020/12/21 05:18:23;;;;;;;21.77;12.10;;;;;;;1.87;100.00;97190.81;5024685;28;20099;-52
2020/12/21 05:20:55;;;;;;;24.08;13.15;;;;;;;1.92;100.00;97183.63;4996378;28;20453;-52
2020/12/21 05:23:22;;;;;;;21.85;11.65;;;;;;;1.87;100.00;97180.41;5005477;28;20075;-49
2020/12/21 05:26:00;;;;;;;22.15;11.73;;;;;;;1.74;100.00;97190.53;4990531;28;20061;-51
2020/12/21 05:28:30;;;;;;;22.25;12.10;;;;;;;1.77;100.00;97193.00;5027519;28;20053;-49
2020/12/21 05:30:59;;;;;;;24.00;12.80;;;;;;;1.81;100.00;97196.28;4995452;28;20144;-50
2020/12/21 05:33:26;;;;;;;27.50;14.38;;;;;;;1.77;100.00;97189.56;5020131;28;20077;-50
2020/12/21 05:35:56;;;;;;;23.90;13.15;;;;;;;1.67;100.00;97187.38;4971180;28;20401;-48
2020/12/21 05:38:25;;;;;;;23.98;13.18;;;;;;;1.53;100.00;97182.00;5028386;28;20118;-49
2020/12/21 05:40:53;;;;;;;24.50;12.75;;;;;;;1.58;100.00;97187.84;5005466;28;20155;-56
2020/12/21 05:43:28;;;;;;;27.45;13.60;;;;;;;1.53;100.00;97181.16;5010799;28;20038;-50
2020/12/21 05:46:06;;;;;;;22.88;12.50;;;;;;;1.52;100.00;97179.47;5032211;28;20057;-49
2020/12/21 05:48:34;;;;;;;26.65;12.98;;;;;;;1.63;100.00;97183.25;5019501;28;20147;-49
2020/12/21 05:51:02;;;;;;;27.05;13.80;;;;;;;1.70;100.00;97175.16;5030244;28;20131;-49
2020/12/21 05:53:34;;;;;;;28.33;13.95;;;;;;;1.64;100.00;97186.69;4977249;28;20042;-52
2020/12/21 05:56:01;;;;;;;32.47;14.80;;;;;;;1.79;100.00;97177.31;5024231;28;20033;-51
2020/12/21 05:58:32;;;;;;;24.73;13.75;;;;;;;1.83;100.00;97174.50;4992510;28;20038;-52
2020/12/21 06:01:00;;;;;;;23.60;12.60;;;;;;;1.61;100.00;97164.25;5029882;28;20124;-48
2020/12/21 06:03:38;;;;;;;23.85;11.55;;;;;;;1.47;100.00;97156.28;4990862;28;20519;-50
2020/12/21 06:06:07;;;;;;;22.48;12.70;;;;;;;1.61;100.00;97164.25;5028549;28;20048;-51
2020/12/21 06:08:35;;;;;;;25.13;13.80;;;;;;;1.72;100.00;97160.31;4978576;28;20133;-52
2020/12/21 06:11:20;;;;;;;26.42;12.98;;;;;;;1.65;100.00;97152.84;5024510;28;20616;-48
2020/12/21 06:13:53;;;;;;;26.73;13.15;;;;;;;1.53;100.00;97147.34;4991798;28;20136;-54
2020/12/21 06:16:21;;;;;;;23.85;13.52;;;;;;;1.57;100.00;97152.34;5030256;28;20049;-46
2020/12/21 06:19:02;;;;;;;28.75;14.27;;;;;;;1.59;100.00;97152.28;4983378;28;20503;-47
2020/12/21 06:21:30;;;;;;;26.83;14.93;;;;;;;1.60;100.00;97148.75;5021314;28;20124;-54
2020/12/21 06:23:57;;;;;;;29.10;14.57;;;;;;;1.57;100.00;97146.28;4982203;28;20077;-48
2020/12/21 06:26:33;;;;;;;26.10;14.02;;;;;;;1.52;100.00;97148.28;5027294;28;20116;-48
2020/12/21 06:29:02;;;;;;;28.55;13.77;;;;;;;1.50;100.00;97126.72;4995680;28;20042;-50
2020/12/21 06:31:37;;;;;;;25.35;12.77;;;;;;;1.29;100.00;97128.56;5030465;28;20056;-50
2020/12/21 06:34:05;;;;;;;25.45;13.57;;;;;;;1.24;100.00;97131.38;4996047;28;20176;-50
2020/12/21 06:36:32;;;;;;;27.10;14.52;;;;;;;1.13;100.00;97131.84;5002150;28;20603;-48
2020/12/21 06:38:59;;;;;;;29.50;16.38;;;;;;;1.18;100.00;97135.09;4987295;28;20074;-51
2020/12/21 06:41:27;;;;;;;28.13;14.77;;;;;;;1.25;100.00;97143.44;5028539;28;20046;-53
2020/12/21 06:44:06;;;;;;;29.75;15.70;;;;;;;1.28;100.00;97145.06;4992937;28;20500;-50
2020/12/21 06:46:34;;;;;;;32.83;16.63;;;;;;;1.38;100.00;97143.72;5019600;28;20489;-47
2020/12/21 06:49:10;;;;;;;28.60;15.50;;;;;;;1.38;100.00;97141.13;4984930;28;20128;-48
2020/12/21 06:51:41;;;;;;;28.35;14.57;;;;;;;1.29;100.00;97144.16;5018951;28;20123;-50
2020/12/21 06:54:09;;;;;;;30.25;14.88;;;;;;;1.35;100.00;97143.88;4980348;28;20501;-49
2020/12/21 06:56:37;;;;;;;29.92;14.98;;;;;;;1.39;100.00;97141.03;5029621;28;20049;-47
2020/12/21 06:59:10;;;;;;;30.30;14.73;;;;;;;1.44;100.00;97135.63;4995525;28;20403;-48
2020/12/21 07:01:40;;;;;;;34.88;16.45;;;;;;;1.46;100.00;97133.81;5027417;28;20045;-51
2020/12/21 07:04:10;;;;;;;34.53;16.70;;;;;;;1.47;100.00;97132.88;5012171;28;20079;-49
2020/12/21 07:06:38;;;;;;;34.20;16.42;;;;;;;1.53;100.00;97139.56;5028570;28;20610;-47
2020/12/21 07:09:05;;;;;;;32.47;16.50;;;;;;;1.58;100.00;97148.84;5029385;28;20044;-51
2020/12/21 07:11:32;;;;;;;29.95;14.73;;;;;;;1.78;100.00;97144.44;4987185;28;20102;-53
2020/12/21 07:13:59;;;;;;;29.25;15.05;;;;;;;1.89;100.00;97148.22;5029591;28;20053;-51
2020/12/21 07:16:27;;;;;;;31.33;15.07;;;;;;;2.01;100.00;97148.53;4987424;28;20157;-53
2020/12/21 07:18:54;;;;;;;31.88;15.90;;;;;;;2.19;100.00;97146.78;5026998;28;20072;-51
2020/12/21 07:21:22;;;;;;;32.85;15.38;;;;;;;2.32;100.00;97155.66;4993361;28;20124;-48
2020/12/21 07:23:49;;;;;;;27.95;14.30;;;;;;;2.28;100.00;97162.78;5009808;28;20049;-47
2020/12/21 07:26:16;;;;;;;27.88;14.90;;;;;;;2.37;100.00;97157.13;4973419;28;20480;-48
2020/12/21 07:28:47;;;;;;;30.73;14.57;;;;;;;2.24;100.00;97163.84;5021802;28;20050;-51
2020/12/21 07:31:14;;;;;;;;;;;;;;;2.20;100.00;97164.06;4984847;28;20099;-55
2020/12/21 07:33:51;;;;;;;32.38;15.82;;;;;;;2.11;100.00;97157.56;5026924;28;20013;-54
2020/12/21 07:36:19;;;;;;;34.22;16.02;;;;;;;2.16;100.00;97154.72;4991986;28;20040;-50
2020/12/21 07:38:46;;;;;;;37.72;17.20;;;;;;;2.03;100.00;97157.06;5029258;28;20045;-51
2020/12/21 07:41:15;;;;;;;36.63;15.73;;;;;;;1.94;100.00;97162.75;4994564;28;20508;-55
2020/12/21 07:43:44;;;;;;;35.30;16.08;;;;;;;1.91;100.00;97155.94;5025725;28;20049;-50
2020/12/21 07:46:19;;;;;;;41.00;18.60;;;;;;;1.81;100.00;97163.31;4985944;28;20048;-48
2020/12/21 07:48:47;;;;;;;40.10;20.38;;;;;;;1.75;100.00;97166.22;5006702;28;20049;-53
2020/12/21 07:51:19;;;;;;;37.78;18.38;;;;;;;1.74;100.00;97177.53;4984338;28;27874;-50
2020/12/21 07:53:46;;;;;;;46.28;21.98;;;;;;;1.97;100.00;97186.00;5030302;28;20041;-54
2020/12/21 07:56:14;;;;;;;60.88;30.48;;;;;;;2.08;100.00;97191.53;4971848;28;20113;-49
2020/12/21 07:58:42;;;;;;;35.75;17.20;;;;;;;2.14;100.00;97193.84;5018842;28;20037;-50
2020/12/21 08:01:09;;;;;;;79.72;45.80;;;;;;;2.29;100.00;97197.44;5027125;28;20496;-48
2020/12/21 08:03:39;;;;;;;44.50;21.35;;;;;;;2.55;100.00;97188.34;4991106;28;20453;-51
2020/12/21 08:06:15;;;;;;;37.90;18.48;;;;;;;2.52;100.00;97178.94;5026337;28;20103;-51
2020/12/21 08:08:48;;;;;;;40.55;17.70;;;;;;;2.56;100.00;97185.66;4987945;28;20053;-53
2020/12/21 08:11:18;;;;;;;39.17;19.40;;;;;;;2.46;100.00;97178.38;5026194;28;20099;-49
2020/12/21 08:13:46;;;;;;;38.50;18.55;;;;;;;2.58;100.00;97181.22;4990910;28;20115;-49
2020/12/21 08:16:13;;;;;;;37.22;18.38;;;;;;;2.69;100.00;97177.22;5018801;28;20054;-49
2020/12/21 08:18:45;;;;;;;39.03;16.90;;;;;;;2.59;100.00;97174.25;4981309;28;20149;-50
2020/12/21 08:21:15;;;;;;;37.03;18.17;;;;;;;3.04;100.00;97167.56;5023748;28;20076;-49
2020/12/21 08:23:52;;;;;;;43.22;19.67;;;;;;;2.99;100.00;97159.16;5007234;28;20046;-50
2020/12/21 08:26:19;;;;;;;35.75;16.83;;;;;;;3.05;100.00;97159.66;5025718;28;20038;-47
2020/12/21 08:28:48;;;;;;;35.25;18.85;;;;;;;2.94;100.00;97164.63;4986199;28;20048;-55
2020/12/21 08:31:18;;;;;;;39.70;19.50;;;;;;;3.11;100.00;97160.28;5026142;28;20072;-53
2020/12/21 08:33:57;;;;;;;33.88;16.55;;;;;;;2.75;100.00;97153.47;4997270;28;20049;-51
2020/12/21 08:36:26;;;;;;;36.78;18.10;;;;;;;2.64;100.00;97148.81;5013341;28;20064;-50
2020/12/21 08:39:05;;;;;;;38.00;18.40;;;;;;;2.83;100.00;97146.94;4967710;28;20316;-54
2020/12/21 08:41:40;;;;;;;38.28;19.15;;;;;;;2.76;100.00;97150.78;5026065;28;20038;-52
2020/12/21 08:44:08;;;;;;;40.53;19.08;;;;;;;3.21;100.00;97149.28;4971073;28;20049;-48
2020/12/21 08:46:35;;;;;;;40.30;18.13;;;;;;;3.30;100.00;97151.41;5020144;28;20730;-48
2020/12/21 08:49:02;;;;;;;37.45;16.10;;;;;;;3.36;100.00;97154.59;4992308;28;20087;-50
2020/12/21 08:51:29;;;;;;;38.67;18.48;;;;;;;3.62;100.00;97163.59;5023422;28;20041;-50
2020/12/21 08:53:57;;;;;;;34.10;18.17;;;;;;;3.67;100.00;97157.19;4995576;28;20484;-49
2020/12/21 08:56:25;;;;;;;41.30;20.30;;;;;;;3.30;100.00;97150.53;5026814;28;20129;-51
2020/12/21 08:58:52;;;;;;;34.47;18.35;;;;;;;3.66;100.00;97149.47;4987063;28;20048;-46
2020/12/21 09:01:18;;;;;;;40.50;19.27;;;;;;;3.57;100.00;97151.63;5012336;28;20044;-52
2020/12/21 09:03:46;;;;;;;35.00;16.55;;;;;;;3.24;100.00;97151.72;5012061;28;20049;-53
2020/12/21 09:06:18;;;;;;;40.53;18.80;;;;;;;3.41;100.00;97150.81;4994701;28;20467;-50
2020/12/21 09:08:55;;;;;;;44.15;19.45;;;;;;;3.35;100.00;97140.72;4998569;28;20052;-49
2020/12/21 09:11:25;;;;;;;44.75;21.27;;;;;;;3.35;100.00;97143.31;4991981;28;20706;-48
2020/12/21 09:13:53;;;;;;;36.15;17.73;;;;;;;3.40;100.00;97151.72;5026203;28;20041;-50
2020/12/21 09:16:24;;;;;;;31.88;16.00;;;;;;;3.49;100.00;97155.59;4987898;28;20053;-51
2020/12/21 09:18:52;;;;;;;41.50;20.33;;;;;;;3.57;100.00;97153.41;5024436;28;20508;-51
2020/12/21 09:21:23;;;;;;;37.83;19.35;;;;;;;3.73;100.00;97150.81;4980074;28;20037;-48
2020/12/21 09:23:50;;;;;;;36.10;18.95;;;;;;;3.62;100.00;97143.59;5025599;28;20080;-54
2020/12/21 09:26:17;;;;;;;36.92;17.95;;;;;;;3.79;100.00;97140.03;4990536;28;20041;-49
2020/12/21 09:28:46;;;;;;;34.67;18.08;;;;;;;3.66;100.00;97145.09;5026952;28;20041;-50
2020/12/21 09:31:14;;;;;;;36.97;18.20;;;;;;;3.72;100.00;97143.91;4997802;28;20077;-49
2020/12/21 09:33:45;;;;;;;35.78;18.77;;;;;;;3.61;100.00;97149.69;5019972;28;20045;-48
2020/12/21 09:36:13;;;;;;;31.20;16.63;;;;;;;3.76;100.00;97150.63;4981523;28;20076;-51
2020/12/21 09:38:40;;;;;;;33.83;18.65;;;;;;;3.81;100.00;97146.81;5009087;28;20058;-46
2020/12/21 09:41:07;;;;;;;35.75;19.27;;;;;;;3.76;100.00;97141.03;4982124;28;20072;-54
2020/12/21 09:43:34;;;;;;;35.80;18.52;;;;;;;4.19;100.00;97137.75;5025603;28;20042;-50
2020/12/21 09:46:02;;;;;;;31.52;16.60;;;;;;;3.91;100.00;97123.66;4992942;28;20077;-55
2020/12/21 09:48:30;;;;;;;36.42;18.92;;;;;;;4.27;100.00;97125.94;5019369;28;20049;-48
2020/12/21 09:50:57;;;;;;;31.85;17.15;;;;;;;4.26;100.00;97126.84;4990822;28;22454;-50
2020/12/21 09:53:24;;;;;;;28.52;16.30;;;;;;;3.93;100.00;97119.22;5027340;28;20120;-46
2020/12/21 09:55:52;;;;;;;33.33;17.75;;;;;;;4.11;100.00;97104.28;5034449;28;20419;-49
2020/12/21 09:58:19;;;;;;;31.83;17.27;;;;;;;4.16;100.00;97104.81;5007491;28;20408;-47
2020/12/21 10:00:46;;;;;;;29.83;16.20;;;;;;;4.59;100.00;97089.25;5010932;28;20042;-51
2020/12/21 10:03:14;;;;;;;26.15;15.13;;;;;;;4.28;100.00;97098.06;4992662;28;20129;-48
2020/12/21 10:05:42;;;;;;;30.35;15.02;;;;;;;4.03;100.00;97099.50;5021321;28;22020;-51
2020/12/21 10:08:09;;;;;;;32.20;17.08;;;;;;;3.77;100.00;97093.16;4997597;28;20187;-47
2020/12/21 10:10:37;;;;;;;26.00;13.38;;;;;;;3.89;100.00;97089.03;5025771;28;20528;-50
2020/12/21 10:13:04;;;;;;;28.88;14.55;;;;;;;4.20;100.00;97085.47;4981955;28;20037;-55
2020/12/21 10:15:32;;;;;;;27.80;13.52;;;;;;;4.40;100.00;97071.22;5027620;28;20099;-47
2020/12/21 10:17:59;;;;;;;24.83;13.82;;;;;;;4.31;100.00;97073.56;4978781;28;20058;-51
2020/12/21 10:20:27;;;;;;;28.40;14.77;;;;;;;3.97;100.00;97080.75;5034162;28;20053;-46
2020/12/21 10:22:54;;;;;;;22.52;13.43;;;;;;;4.28;100.00;97069.34;4995472;28;20049;-48
2020/12/21 10:25:21;;;;;;;23.38;13.98;;;;;;;4.24;100.00;97066.09;5018911;28;20050;-49
2020/12/21 10:27:50;;;;;;;24.33;13.65;;;;;;;4.23;100.00;97068.75;4978870;28;20124;-54
2020/12/21 10:30:17;;;;;;;22.52;13.32;;;;;;;4.27;100.00;97071.13;5023115;28;20049;-46
2020/12/21 10:32:44;;;;;;;20.88;12.43;;;;;;;4.39;100.00;97074.75;4976471;28;20037;-48
2020/12/21 10:35:12;;;;;;;22.52;13.70;;;;;;;4.85;100.00;97072.00;5024423;28;20052;-50
2020/12/21 10:37:40;;;;;;;21.17;13.20;;;;;;;5.00;100.00;97060.59;4987731;28;20036;-46
2020/12/21 10:40:07;;;;;;;21.63;12.98;;;;;;;4.95;100.00;97062.63;5021599;28;20097;-50
2020/12/21 10:42:34;;;;;;;20.75;12.45;;;;;;;5.11;100.00;97064.31;5011555;28;20415;-49
2020/12/21 10:45:01;;;;;;;21.67;13.18;;;;;;;5.10;100.00;97066.09;4980081;28;20672;-49
2020/12/21 10:47:29;;;;;;;19.85;12.57;;;;;;;5.09;100.00;97058.31;5029569;28;20045;-48
2020/12/21 10:49:57;;;;;;;24.77;14.57;;;;;;;5.21;100.00;97063.63;4986874;28;20060;-50
2020/12/21 10:52:25;;;;;;;22.00;13.35;;;;;;;5.39;100.00;97063.41;5025170;28;20065;-46
2020/12/21 10:54:53;;;;;;;20.45;13.00;;;;;;;5.60;100.00;97062.00;4993999;28;20574;-49
2020/12/21 10:57:20;;;;;;;19.15;12.00;;;;;;;5.25;100.00;97064.28;5026391;28;20116;-47
2020/12/21 10:59:47;;;;;;;20.80;13.60;;;;;;;5.29;100.00;97057.06;4991439;28;20101;-51
2020/12/21 11:02:14;;;;;;;21.88;13.73;;;;;;;5.07;100.00;97058.44;5024997;28;20049;-47
2020/12/21 11:04:42;;;;;;;25.75;13.82;;;;;;;5.01;100.00;97056.19;4977351;28;20046;-51
2020/12/21 11:07:09;;;;;;;23.60;14.27;;;;;;;5.03;100.00;97061.34;5016836;28;20408;-50
2020/12/21 11:09:36;;;;;;;22.60;13.88;;;;;;;4.87;100.00;97059.66;4978475;28;20045;-51
2020/12/21 11:12:04;;;;;;;23.33;14.93;;;;;;;5.08;100.00;97056.66;5012258;28;20053;-47
2020/12/21 11:14:31;;;;;;;23.30;13.43;;;;;;;5.10;100.00;97060.03;4995179;28;20049;-47
2020/12/21 11:16:57;;;;;;;24.42;14.40;;;;;;;5.23;100.00;97056.53;5006292;28;20054;-51
2020/12/21 11:19:24;;;;;;;25.92;14.55;;;;;;;5.11;100.00;97046.84;4982099;28;20087;-49
2020/12/21 11:21:52;;;;;;;27.00;15.20;;;;;;;5.09;100.00;97050.47;5028883;28;20128;-49
2020/12/21 11:24:19;;;;;;;26.10;14.15;;;;;;;5.18;100.00;97045.53;4991693;28;20049;-56